地図

経路データ

SID SEASON NUMBER BASIN SUBBASIN NAME ISO_TIME NATURE LAT LON WMO_WIND WMO_PRES WMO_AGENCY TRACK_TYPE DIST2LAND LANDFALL IFLAG USA_AGENCY USA_ATCF_ID USA_LAT USA_LON USA_RECORD USA_STATUS USA_WIND USA_PRES USA_SSHS USA_R34_NE USA_R34_SE USA_R34_SW USA_R34_NW USA_R50_NE USA_R50_SE USA_R50_SW USA_R50_NW USA_R64_NE USA_R64_SE USA_R64_SW USA_R64_NW USA_POCI USA_ROCI USA_RMW USA_EYE TOKYO_LAT TOKYO_LON TOKYO_GRADE TOKYO_WIND TOKYO_PRES TOKYO_R50_DIR TOKYO_R50_LONG TOKYO_R50_SHORT TOKYO_R30_DIR TOKYO_R30_LONG TOKYO_R30_SHORT TOKYO_LAND CMA_LAT CMA_LON CMA_CAT CMA_WIND CMA_PRES HKO_LAT HKO_LON HKO_CAT HKO_WIND HKO_PRES NEWDELHI_LAT NEWDELHI_LON NEWDELHI_GRADE NEWDELHI_WIND NEWDELHI_PRES NEWDELHI_CI NEWDELHI_DP NEWDELHI_POCI REUNION_LAT REUNION_LON REUNION_TYPE REUNION_WIND REUNION_PRES REUNION_TNUM REUNION_CI REUNION_RMW REUNION_R34_NE REUNION_R34_SE REUNION_R34_SW REUNION_R34_NW REUNION_R50_NE REUNION_R50_SE REUNION_R50_SW REUNION_R50_NW REUNION_R64_NE REUNION_R64_SE REUNION_R64_SW REUNION_R64_NW BOM_LAT BOM_LON BOM_TYPE BOM_WIND BOM_PRES BOM_TNUM BOM_CI BOM_RMW BOM_R34_NE BOM_R34_SE BOM_R34_SW BOM_R34_NW BOM_R50_NE BOM_R50_SE BOM_R50_SW BOM_R50_NW BOM_R64_NE BOM_R64_SE BOM_R64_SW BOM_R64_NW BOM_ROCI BOM_POCI BOM_EYE BOM_POS_METHOD BOM_PRES_METHOD NADI_LAT NADI_LON NADI_CAT NADI_WIND NADI_PRES WELLINGTON_LAT WELLINGTON_LON WELLINGTON_WIND WELLINGTON_PRES DS824_LAT DS824_LON DS824_STAGE DS824_WIND DS824_PRES TD9636_LAT TD9636_LON TD9636_STAGE TD9636_WIND TD9636_PRES TD9635_LAT TD9635_LON TD9635_WIND TD9635_PRES TD9635_ROCI NEUMANN_LAT NEUMANN_LON NEUMANN_CLASS NEUMANN_WIND NEUMANN_PRES MLC_LAT MLC_LON MLC_CLASS MLC_WIND MLC_PRES USA_GUST BOM_GUST BOM_GUST_PER REUNION_GUST REUNION_GUST_PER USA_SEAHGT USA_SEARAD_NE USA_SEARAD_SE USA_SEARAD_SW USA_SEARAD_NW STORM_SPEED STORM_DIR
1979224N32143 1979 68 WP MM NOT_NAMED 1979-08-12 06:00:00 TS 32.0000 143.000 main 430 425 __O___________ -1 32.0000 143.000 0 19 1004 2 262
1979224N32143 1979 68 WP MM NOT_NAMED 1979-08-12 09:00:00 TS 31.9872 142.895 main 425 425 __P___________ -1 31.9872 142.895 0 19 1004 0 0
1979224N32143 1979 68 WP MM NOT_NAMED 1979-08-12 12:00:00 TS 32.0000 143.000 main 430 430 __O___________ -1 32.0000 143.000 0 19 1004 5 81
1979224N32143 1979 68 WP MM NOT_NAMED 1979-08-12 15:00:00 TS 32.0630 143.440 main 442 442 __P___________ -1 32.0630 143.440 0 21 1003 9 77
1979224N32143 1979 68 WP MM NOT_NAMED 1979-08-12 18:00:00 TS 32.2000 144.000 main 471 471 __O___________ -1 32.2000 144.000 1 23 1002 9 69
1979224N32143 1979 68 WP MM NOT_NAMED 1979-08-12 21:00:00 TS 32.3976 144.482 main 490 489 __P___________ -1 32.3976 144.482 1 26 1001 8 53
1979224N32143 1979 68 WP MM NOT_NAMED 1979-08-13 00:00:00 TS 32.7000 144.800 main 489 466 __O___________ -1 32.7000 144.800 1 29 1000 8 23
1979224N32143 1979 68 WP MM NOT_NAMED 1979-08-13 03:00:00 TS 33.1720 144.878 main 459 418 __P___________ -1 33.1720 144.878 1 29 1000 9 355
1979224N32143 1979 68 WP MM NOT_NAMED 1979-08-13 06:00:00 TS 33.6000 144.700 main 418 367 __O___________ -1 33.6000 144.700 1 29 1000 8 318
1979224N32143 1979 68 WP MM NOT_NAMED 1979-08-13 09:00:00 TS 33.7908 144.220 main 367 338 __P___________ -1 33.7908 144.220 1 29 1000 8 285
1979224N32143 1979 68 WP MM NOT_NAMED 1979-08-13 12:00:00 TS 33.8000 143.800 main 338 338 __O___________ -1 33.8000 143.800 1 29 1000 4 246
1979224N32143 1979 68 WP MM NOT_NAMED 1979-08-13 15:00:00 TS 33.6421 143.823 main 353 353 __P___________ -1 33.6421 143.823 1 29 999 4 140
1979224N32143 1979 68 WP MM NOT_NAMED 1979-08-13 18:00:00 TS 33.5000 144.100 main 381 381 __O___________ -1 33.5000 144.100 1 29 998 6 94
1979224N32143 1979 68 WP MM NOT_NAMED 1979-08-13 21:00:00 TS 33.6055 144.507 main 403 403 __P___________ -1 33.6055 144.507 1 29 998 7 66
1979224N32143 1979 68 WP MM NOT_NAMED 1979-08-14 00:00:00 TS 33.8000 144.900 main 421 421 __O___________ -1 33.8000 144.900 1 29 998 6 51
1979224N32143 1979 68 WP MM NOT_NAMED 1979-08-14 03:00:00 TS 33.9723 145.060 main 426 421 __P___________ -1 33.9723 145.060 1 29 998 3 29
1979224N32143 1979 68 WP MM NOT_NAMED 1979-08-14 06:00:00 TS 34.1000 145.100 main 421 421 __O___________ -1 34.1000 145.100 1 29 998 2 24
1979224N32143 1979 68 WP MM NOT_NAMED 1979-08-14 09:00:00 TS 34.1300 145.138 main 421 421 __P___________ -1 34.1300 145.138 1 29 998 0 0
1979224N32143 1979 68 WP MM NOT_NAMED 1979-08-14 12:00:00 TS 34.1000 145.100 main 421 413 __O___________ -1 34.1000 145.100 1 29 998 2 242
1979224N32143 1979 68 WP MM NOT_NAMED 1979-08-14 15:00:00 TS 34.0501 144.950 main 405 402 __P___________ -1 34.0501 144.950 1 29 998 3 248
1979224N32143 1979 68 WP MM NOT_NAMED 1979-08-14 18:00:00 TS 34.0000 144.800 main 402 402 __O___________ -1 34.0000 144.800 1 29 998 1 241
1979224N32143 1979 68 WP MM NOT_NAMED 1979-08-14 21:00:00 TS 33.9775 144.792 main 402 402 __P___________ -1 33.9775 144.792 1 29 998 0 0
1979224N32143 1979 68 WP MM NOT_NAMED 1979-08-15 00:00:00 TS 34.0000 144.800 main 402 389 __O___________ -1 34.0000 144.800 1 29 998 1 326
1979224N32143 1979 68 WP MM NOT_NAMED 1979-08-15 03:00:00 TS 34.1000 144.700 main 389 375 __P___________ -1 34.1000 144.700 1 29 998 3 320
1979224N32143 1979 68 WP MM NOT_NAMED 1979-08-15 06:00:00 TS 34.2000 144.600 main 375 375 __O___________ -1 34.2000 144.600 1 29 998 1 331
1979224N32143 1979 68 WP MM NOT_NAMED 1979-08-15 09:00:00 TS 34.2149 144.622 main 375 375 __P___________ -1 34.2149 144.622 1 29 998 0 0
1979224N32143 1979 68 WP MM NOT_NAMED 1979-08-15 12:00:00 TS 34.2000 144.600 main 375 359 __O___________ -1 34.2000 144.600 1 29 998 2 274
1979224N32143 1979 68 WP MM NOT_NAMED 1979-08-15 15:00:00 TS 34.2302 144.373 main 359 335 __P___________ -1 34.2302 144.373 1 29 998 4 270
1979224N32143 1979 68 WP MM NOT_NAMED 1979-08-15 18:00:00 TS 34.2000 144.100 main 335 332 __O___________ -1 34.2000 144.100 1 29 998 4 234
1979224N32143 1979 68 WP MM NOT_NAMED 1979-08-15 21:00:00 TS 33.9699 143.935 main 332 332 __P___________ -1 33.9699 143.935 1 29 998 5 212
1979224N32143 1979 68 WP MM NOT_NAMED 1979-08-16 00:00:00 TS 33.8000 143.800 main 338 310 __O___________ -1 33.8000 143.800 1 29 998 3 270
1979224N32143 1979 68 WP MM NOT_NAMED 1979-08-16 03:00:00 TS 33.9700 143.628 main 310 289 __P___________ -1 33.9700 143.628 1 29 998 5 328
1979224N32143 1979 68 WP MM NOT_NAMED 1979-08-16 06:00:00 TS 34.2000 143.500 main 289 289 __O___________ -1 34.2000 143.500 1 29 998 3 334
1979224N32143 1979 68 WP MM NOT_NAMED 1979-08-16 09:00:00 TS 34.2300 143.477 main 289 289 __P___________ -1 34.2300 143.477 1 29 998 0 0
1979224N32143 1979 68 WP MM NOT_NAMED 1979-08-16 12:00:00 TS 34.2000 143.500 main 289 289 __O___________ -1 34.2000 143.500 1 29 998 0 139
1979224N32143 1979 68 WP MM NOT_NAMED 1979-08-16 15:00:00 TS 34.2000 143.500 main 289 289 __P___________ -1 34.2000 143.500 1 29 998 0 0
1979224N32143 1979 68 WP MM NOT_NAMED 1979-08-16 18:00:00 TS 34.2000 143.500 main 289 289 __O___________ -1 34.2000 143.500 1 29 998 0 0
1979224N32143 1979 68 WP MM NOT_NAMED 1979-08-16 21:00:00 TS 34.2000 143.500 main 289 289 __P___________ -1 34.2000 143.500 1 29 998 0 0
1979224N32143 1979 68 WP MM NOT_NAMED 1979-08-17 00:00:00 TS 34.2000 143.500 main 289 289 __O___________ -1 34.2000 143.500 1 29 998 1 200
1979224N32143 1979 68 WP MM NOT_NAMED 1979-08-17 03:00:00 TS 34.1475 143.493 main 296 289 __P___________ -1 34.1475 143.493 1 29 998 0 0
1979224N32143 1979 68 WP MM NOT_NAMED 1979-08-17 06:00:00 TS 34.2000 143.500 main 289 271 __O___________ -1 34.2000 143.500 1 29 998 3 4
1979224N32143 1979 68 WP MM NOT_NAMED 1979-08-17 09:00:00 TS 34.4824 143.506 main 271 260 __P___________ -1 34.4824 143.506 1 29 998 7 6
1979224N32143 1979 68 WP MM NOT_NAMED 1979-08-17 12:00:00 TS 34.9000 143.600 main 260 256 __O___________ -1 34.9000 143.600 1 29 998 8 17
1979224N32143 1979 68 WP MM NOT_NAMED 1979-08-17 15:00:00 TS 35.2820 143.804 main 265 265 __P___________ -1 35.2820 143.804 1 29 998 10 29
1979224N32143 1979 68 WP MM NOT_NAMED 1979-08-17 18:00:00 TS 35.8000 144.200 main 297 297 __O___________ -1 35.8000 144.200 1 29 998 15 33
1979224N32143 1979 68 WP MM NOT_NAMED 1979-08-17 21:00:00 TS 36.5248 144.803 main 342 340 __P___________ -1 36.5248 144.803 1 29 998 20 35
1979224N32143 1979 68 WP MM NOT_NAMED 1979-08-18 00:00:00 TS 37.4000 145.600 main 372 369 __O___________ -1 37.4000 145.600 1 29 998 23 37
1979224N32143 1979 68 WP MM NOT_NAMED 1979-08-18 03:00:00 TS 38.3391 146.515 main 402 402 __P___________ -1 38.3391 146.515 1 26 999 24 38
1979224N32143 1979 68 WP MM NOT_NAMED 1979-08-18 06:00:00 TS 39.3000 147.500 main 459 __O___________ -1 39.3000 147.500 1 23 1000 25 38

デジタル台風データ・検索

IBTrACS Databaseについて

本データベースは、米国NOAAが公開する1842年以降の世界の熱帯低気圧のベストトラックデータアーカイブInternational Best Track Archive for Climate Stewardship (IBTrACS)を、ウェブで閲覧しやすい形式に変換したものです。

最終更新日:2021-10-27